Northfield Village, Ohio
Current Conditions -  °F | °C
As of 8:53 AM on Thursday 23 Oct 2014 (Local Time) from KBKL Reporting Station
Scattered Clouds Scattered Clouds  
Wind Chill: 51°   Ceiling: Unl
Heat Index: 51°   Visibility: 10mi
Dew Point: 46°   Wind: 8mph
Humidity: 83%   Direction: 350°N
Pressure: 30.2"   Gusts: NA
Location:  41.3128°N, 81.5476°W
Report Text: KBKL 231253Z 35007KT 10SM SCT020 11/08 A3020 RMK AO2 SLP227 T01060078
Loading
Personal Weather Stations






























Interactive Weather Map
Tropical Storm Tracking
New forecast layout! Learn more

10-Day Weather Forecast

Advertisements
Track Severe Weather on mobile